Portada
METAR-TAF:

METAR-TAF

Aeroports :

Phitsanulok, Tailàndia

latitud: 16-46-23N, longitud: 100-16-56E, altitud: 47 m

Observació

L'informe es va fer fa 40 minuts, a les 23:00 UTC
Vent 2 kt del Nord-Est
Temperatura 22°C
Humitat 94%
Pressió 1014 hPa
Visibilitat: 2200 m
boirina

METAR: VTPP 202300Z 05002KT 2200 BR NSC 22/21 Q1014 BECMG 3000

Hora: 06:40 (23:40 UTC)

Pronòstic

L'informe es va fer fa 6 hores i 40 minuts, a les 17:00 UTC
Pronòstic vàlid del 20 a les 18 UTC al 21 a les 18 UTC
Vent 5 kt del Sud/Sud-Est
Visibilitat: 6000 m
Evolucionant progressivament
l' 20 a les 23 UTC al 21 a les 01 UTC
Visibilitat: 4000 m
boirina
Evolucionant progressivament
l' 21 a les 03 UTC al 21 a les 05 UTC
Visibilitat: 7000 m

TAF: VTPP 201700Z 2018/2118 16005KT 6000 NSC BECMG 2023/2101 4000 BR BECMG 2103/2105 7000 NSW

Observacions i pronòstics meteorològics de més de 4000 aeroports (METAR i TAF).

Les estacions disponibles són els punts grocs i vermells al mapa.

Posi el ratolí al punt desitjat per veure el nom de l'estació.

Feu clic per veure les observacions i els pronòstics meteorològics.

Per canviar el mapa: feu clic els botons verds amb una creu de color negre per apropar; al botó verd amb un guió per allunyar la imatge; o en les fletxes verdes per a mapes adjacents.


METAR-TAF: